sensor_id;sensor_type;location;lat;lon;timestamp;temperature;humidity
37324;DHT22;23205;49.986;18.950;2023-02-15T00:03:41;4.30;99.90
37324;DHT22;23205;49.986;18.950;2023-02-15T00:08:42;4.30;99.90
37324;DHT22;23205;49.986;18.950;2023-02-15T00:13:43;4.10;99.90
37324;DHT22;23205;49.986;18.950;2023-02-15T00:18:44;4.20;99.90
37324;DHT22;23205;49.986;18.950;2023-02-15T00:23:45;4.20;99.90
37324;DHT22;23205;49.986;18.950;2023-02-15T00:28:46;4.30;99.90
37324;DHT22;23205;49.986;18.950;2023-02-15T00:33:47;4.20;99.90
37324;DHT22;23205;49.986;18.950;2023-02-15T00:38:48;4.20;99.90
37324;DHT22;23205;49.986;18.950;2023-02-15T00:43:49;4.10;99.90
37324;DHT22;23205;49.986;18.950;2023-02-15T00:48:50;4.10;99.90
37324;DHT22;23205;49.986;18.950;2023-02-15T00:53:50;4.10;99.90
37324;DHT22;23205;49.986;18.950;2023-02-15T00:58:51;4.20;99.90
37324;DHT22;23205;49.986;18.950;2023-02-15T01:03:53;4.20;99.90
37324;DHT22;23205;49.986;18.950;2023-02-15T01:08:54;4.20;99.90
37324;DHT22;23205;49.986;18.950;2023-02-15T01:13:56;4.20;99.90
37324;DHT22;23205;49.986;18.950;2023-02-15T01:18:58;4.10;99.90
37324;DHT22;23205;49.986;18.950;2023-02-15T01:24:00;4.10;99.90
37324;DHT22;23205;49.986;18.950;2023-02-15T01:29:00;4.10;99.90
37324;DHT22;23205;49.986;18.950;2023-02-15T01:34:02;4.10;99.90
37324;DHT22;23205;49.986;18.950;2023-02-15T01:39:02;4.10;99.90
37324;DHT22;23205;49.986;18.950;2023-02-15T01:49:46;4.00;99.90
37324;DHT22;23205;49.986;18.950;2023-02-15T01:54:48;4.10;99.90
37324;DHT22;23205;49.986;18.950;2023-02-15T01:59:53;4.00;99.90
37324;DHT22;23205;49.986;18.950;2023-02-15T02:05:00;4.10;99.90
37324;DHT22;23205;49.986;18.950;2023-02-15T02:10:11;4.20;99.90
37324;DHT22;23205;49.986;18.950;2023-02-15T02:15:13;4.20;99.90
37324;DHT22;23205;49.986;18.950;2023-02-15T02:20:43;4.20;99.90
37324;DHT22;23205;49.986;18.950;2023-02-15T02:36:41;3.90;99.90
37324;DHT22;23205;49.986;18.950;2023-02-15T02:42:21;3.90;99.90
37324;DHT22;23205;49.986;18.950;2023-02-15T02:52:51;3.80;99.90
37324;DHT22;23205;49.986;18.950;2023-02-15T03:03:34;3.80;99.90
37324;DHT22;23205;49.986;18.950;2023-02-15T03:08:41;3.70;99.90
37324;DHT22;23205;49.986;18.950;2023-02-15T03:13:45;3.70;99.90
37324;DHT22;23205;49.986;18.950;2023-02-15T03:18:53;3.60;99.90
37324;DHT22;23205;49.986;18.950;2023-02-15T03:24:09;3.50;99.90
37324;DHT22;23205;49.986;18.950;2023-02-15T03:29:12;3.40;99.90
37324;DHT22;23205;49.986;18.950;2023-02-15T03:34:15;3.30;99.90
37324;DHT22;23205;49.986;18.950;2023-02-15T03:44:29;3.00;99.90
37324;DHT22;23205;49.986;18.950;2023-02-15T03:49:43;2.80;99.90
37324;DHT22;23205;49.986;18.950;2023-02-15T03:54:46;2.70;99.90
37324;DHT22;23205;49.986;18.950;2023-02-15T03:59:47;2.50;99.90
37324;DHT22;23205;49.986;18.950;2023-02-15T04:05:12;2.40;99.90
37324;DHT22;23205;49.986;18.950;2023-02-15T04:10:15;2.40;99.90
37324;DHT22;23205;49.986;18.950;2023-02-15T04:15:35;2.20;99.90
37324;DHT22;23205;49.986;18.950;2023-02-15T04:20:54;2.20;99.90
37324;DHT22;23205;49.986;18.950;2023-02-15T04:26:14;2.20;99.90
37324;DHT22;23205;49.986;18.950;2023-02-15T04:31:15;2.10;99.90
37324;DHT22;23205;49.986;18.950;2023-02-15T04:36:16;2.10;99.90
37324;DHT22;23205;49.986;18.950;2023-02-15T04:41:17;2.00;99.90
37324;DHT22;23205;49.986;18.950;2023-02-15T04:46:18;1.90;99.90
37324;DHT22;23205;49.986;18.950;2023-02-15T04:51:19;1.90;99.90
37324;DHT22;23205;49.986;18.950;2023-02-15T04:56:20;1.80;99.90
37324;DHT22;23205;49.986;18.950;2023-02-15T05:01:21;1.80;99.90
37324;DHT22;23205;49.986;18.950;2023-02-15T05:06:22;1.70;99.90
37324;DHT22;23205;49.986;18.950;2023-02-15T05:11:23;1.80;99.90
37324;DHT22;23205;49.986;18.950;2023-02-15T05:16:24;1.60;99.90
37324;DHT22;23205;49.986;18.950;2023-02-15T05:21:26;1.40;99.90
37324;DHT22;23205;49.986;18.950;2023-02-15T05:26:27;1.40;99.90
37324;DHT22;23205;49.986;18.950;2023-02-15T05:31:46;1.40;99.90
37324;DHT22;23205;49.986;18.950;2023-02-15T05:36:48;1.40;99.90
37324;DHT22;23205;49.986;18.950;2023-02-15T05:41:49;1.50;99.90
37324;DHT22;23205;49.986;18.950;2023-02-15T05:46:50;1.40;99.90
37324;DHT22;23205;49.986;18.950;2023-02-15T05:51:50;1.40;99.90
37324;DHT22;23205;49.986;18.950;2023-02-15T05:56:51;1.30;99.90
37324;DHT22;23205;49.986;18.950;2023-02-15T06:01:53;1.20;99.90
37324;DHT22;23205;49.986;18.950;2023-02-15T06:06:54;1.10;99.90
37324;DHT22;23205;49.986;18.950;2023-02-15T06:11:54;1.10;99.90
37324;DHT22;23205;49.986;18.950;2023-02-15T06:16:55;1.10;99.90
37324;DHT22;23205;49.986;18.950;2023-02-15T06:21:56;1.20;99.90
37324;DHT22;23205;49.986;18.950;2023-02-15T06:26:57;1.20;99.90
37324;DHT22;23205;49.986;18.950;2023-02-15T06:31:58;1.30;99.90
37324;DHT22;23205;49.986;18.950;2023-02-15T06:36:59;1.40;99.90
37324;DHT22;23205;49.986;18.950;2023-02-15T06:42:00;1.50;99.90
37324;DHT22;23205;49.986;18.950;2023-02-15T06:47:01;1.70;99.90
37324;DHT22;23205;49.986;18.950;2023-02-15T06:52:02;1.90;99.90
37324;DHT22;23205;49.986;18.950;2023-02-15T06:57:03;2.00;99.90
37324;DHT22;23205;49.986;18.950;2023-02-15T07:02:03;2.10;99.90
37324;DHT22;23205;49.986;18.950;2023-02-15T07:07:08;2.30;99.90
37324;DHT22;23205;49.986;18.950;2023-02-15T07:12:09;2.50;99.90
37324;DHT22;23205;49.986;18.950;2023-02-15T07:17:29;2.30;99.90
37324;DHT22;23205;49.986;18.950;2023-02-15T07:22:32;2.60;99.90
37324;DHT22;23205;49.986;18.950;2023-02-15T07:27:34;2.80;99.90
37324;DHT22;23205;49.986;18.950;2023-02-15T07:32:35;3.20;99.90
37324;DHT22;23205;49.986;18.950;2023-02-15T07:37:36;3.00;99.90
37324;DHT22;23205;49.986;18.950;2023-02-15T07:42:37;3.40;99.90
37324;DHT22;23205;49.986;18.950;2023-02-15T07:47:37;3.30;99.90
37324;DHT22;23205;49.986;18.950;2023-02-15T07:52:38;3.80;99.90
37324;DHT22;23205;49.986;18.950;2023-02-15T07:57:46;4.30;99.90
37324;DHT22;23205;49.986;18.950;2023-02-15T08:02:48;4.80;99.90
37324;DHT22;23205;49.986;18.950;2023-02-15T08:07:53;4.90;99.90
37324;DHT22;23205;49.986;18.950;2023-02-15T08:12:54;5.20;99.90
37324;DHT22;23205;49.986;18.950;2023-02-15T08:17:55;5.30;99.90
37324;DHT22;23205;49.986;18.950;2023-02-15T08:22:55;5.60;99.90
37324;DHT22;23205;49.986;18.950;2023-02-15T08:27:56;5.60;99.90
37324;DHT22;23205;49.986;18.950;2023-02-15T08:32:57;5.90;99.90
37324;DHT22;23205;49.986;18.950;2023-02-15T08:37:59;6.30;99.90
37324;DHT22;23205;49.986;18.950;2023-02-15T08:43:00;6.40;99.90
37324;DHT22;23205;49.986;18.950;2023-02-15T08:48:01;6.50;99.90
37324;DHT22;23205;49.986;18.950;2023-02-15T08:53:02;6.10;99.90
37324;DHT22;23205;49.986;18.950;2023-02-15T08:58:02;6.20;99.90
37324;DHT22;23205;49.986;18.950;2023-02-15T09:03:03;6.60;99.90
37324;DHT22;23205;49.986;18.950;2023-02-15T09:08:05;7.60;99.90
37324;DHT22;23205;49.986;18.950;2023-02-15T09:13:06;7.70;99.90
37324;DHT22;23205;49.986;18.950;2023-02-15T09:18:07;7.90;99.90
37324;DHT22;23205;49.986;18.950;2023-02-15T09:23:08;8.30;99.90
37324;DHT22;23205;49.986;18.950;2023-02-15T09:28:09;9.70;97.20
37324;DHT22;23205;49.986;18.950;2023-02-15T09:33:10;10.20;92.40
37324;DHT22;23205;49.986;18.950;2023-02-15T09:38:10;10.50;90.70
37324;DHT22;23205;49.986;18.950;2023-02-15T10:26:02;13.10;70.90
37324;DHT22;23205;49.986;18.950;2023-02-15T11:12:15;19.10;52.40
37324;DHT22;23205;49.986;18.950;2023-02-15T11:22:33;21.20;48.90
37324;DHT22;23205;49.986;18.950;2023-02-15T11:27:34;22.50;47.90
37324;DHT22;23205;49.986;18.950;2023-02-15T11:32:39;21.80;47.20
37324;DHT22;23205;49.986;18.950;2023-02-15T11:53:21;25.20;45.00
37324;DHT22;23205;49.986;18.950;2023-02-15T12:08:51;23.50;45.70
37324;DHT22;23205;49.986;18.950;2023-02-15T12:24:34;26.10;41.90
37324;DHT22;23205;49.986;18.950;2023-02-15T12:29:43;26.00;40.60
37324;DHT22;23205;49.986;18.950;2023-02-15T13:00:48;25.50;41.30
37324;DHT22;23205;49.986;18.950;2023-02-15T13:05:58;25.00;40.80
37324;DHT22;23205;49.986;18.950;2023-02-15T13:11:08;23.20;43.10
37324;DHT22;23205;49.986;18.950;2023-02-15T13:16:30;24.90;41.80
37324;DHT22;23205;49.986;18.950;2023-02-15T14:49:31;24.90;39.60
37324;DHT22;23205;49.986;18.950;2023-02-15T15:05:01;15.50;54.50
37324;DHT22;23205;49.986;18.950;2023-02-15T15:10:04;14.60;58.30
37324;DHT22;23205;49.986;18.950;2023-02-15T15:25:50;11.80;66.50
37324;DHT22;23205;49.986;18.950;2023-02-15T15:30:52;11.50;66.80
37324;DHT22;23205;49.986;18.950;2023-02-15T15:41:15;11.30;68.30
37324;DHT22;23205;49.986;18.950;2023-02-15T15:51:32;10.10;72.10
37324;DHT22;23205;49.986;18.950;2023-02-15T15:56:34;9.60;75.30
37324;DHT22;23205;49.986;18.950;2023-02-15T16:01:42;9.50;76.90
37324;DHT22;23205;49.986;18.950;2023-02-15T16:06:43;9.10;80.20
37324;DHT22;23205;49.986;18.950;2023-02-15T16:11:49;8.90;84.90
37324;DHT22;23205;49.986;18.950;2023-02-15T16:16:55;8.50;91.70
37324;DHT22;23205;49.986;18.950;2023-02-15T16:21:57;8.40;94.10
37324;DHT22;23205;49.986;18.950;2023-02-15T16:37:22;7.30;99.90
37324;DHT22;23205;49.986;18.950;2023-02-15T16:42:24;7.00;99.90
37324;DHT22;23205;49.986;18.950;2023-02-15T16:47:26;6.90;99.90
37324;DHT22;23205;49.986;18.950;2023-02-15T16:52:27;6.60;99.90
37324;DHT22;23205;49.986;18.950;2023-02-15T16:57:35;6.50;99.90
37324;DHT22;23205;49.986;18.950;2023-02-15T17:02:37;6.60;99.90
37324;DHT22;23205;49.986;18.950;2023-02-15T17:07:42;6.60;99.90
37324;DHT22;23205;49.986;18.950;2023-02-15T17:12:52;6.60;99.90
37324;DHT22;23205;49.986;18.950;2023-02-15T17:17:58;6.30;99.90
37324;DHT22;23205;49.986;18.950;2023-02-15T17:23:00;6.20;99.90
37324;DHT22;23205;49.986;18.950;2023-02-15T17:28:02;6.10;99.90
37324;DHT22;23205;49.986;18.950;2023-02-15T17:33:03;6.00;99.90
37324;DHT22;23205;49.986;18.950;2023-02-15T17:38:06;5.90;99.90
37324;DHT22;23205;49.986;18.950;2023-02-15T17:43:15;5.60;99.90
37324;DHT22;23205;49.986;18.950;2023-02-15T17:53:31;5.10;99.90
37324;DHT22;23205;49.986;18.950;2023-02-15T17:58:32;4.80;99.90
37324;DHT22;23205;49.986;18.950;2023-02-15T18:03:39;4.80;99.90
37324;DHT22;23205;49.986;18.950;2023-02-15T18:08:59;4.50;99.90
37324;DHT22;23205;49.986;18.950;2023-02-15T18:14:18;4.40;99.90
37324;DHT22;23205;49.986;18.950;2023-02-15T18:19:25;4.50;99.90
37324;DHT22;23205;49.986;18.950;2023-02-15T18:24:26;4.30;99.90
37324;DHT22;23205;49.986;18.950;2023-02-15T18:29:27;4.30;99.90
37324;DHT22;23205;49.986;18.950;2023-02-15T18:34:29;4.10;99.90
37324;DHT22;23205;49.986;18.950;2023-02-15T18:39:38;4.10;99.90
37324;DHT22;23205;49.986;18.950;2023-02-15T18:44:40;4.00;99.90
37324;DHT22;23205;49.986;18.950;2023-02-15T18:49:41;3.80;99.90
37324;DHT22;23205;49.986;18.950;2023-02-15T18:54:41;3.70;99.90
37324;DHT22;23205;49.986;18.950;2023-02-15T18:59:43;3.70;99.90
37324;DHT22;23205;49.986;18.950;2023-02-15T19:04:44;3.50;99.90
37324;DHT22;23205;49.986;18.950;2023-02-15T19:09:46;3.40;99.90
37324;DHT22;23205;49.986;18.950;2023-02-15T19:14:47;3.40;99.90
37324;DHT22;23205;49.986;18.950;2023-02-15T19:19:50;3.30;99.90
37324;DHT22;23205;49.986;18.950;2023-02-15T19:24:51;3.20;99.90
37324;DHT22;23205;49.986;18.950;2023-02-15T19:29:58;2.90;99.90
37324;DHT22;23205;49.986;18.950;2023-02-15T19:34:59;2.80;99.90
37324;DHT22;23205;49.986;18.950;2023-02-15T19:40:00;2.80;99.90
37324;DHT22;23205;49.986;18.950;2023-02-15T19:45:01;2.70;99.90
37324;DHT22;23205;49.986;18.950;2023-02-15T19:50:02;2.70;99.90
37324;DHT22;23205;49.986;18.950;2023-02-15T19:55:04;2.40;99.90
37324;DHT22;23205;49.986;18.950;2023-02-15T20:00:24;2.50;99.90
37324;DHT22;23205;49.986;18.950;2023-02-15T20:05:26;2.30;99.90
37324;DHT22;23205;49.986;18.950;2023-02-15T20:10:29;2.20;99.90
37324;DHT22;23205;49.986;18.950;2023-02-15T20:15:31;2.10;99.90
37324;DHT22;23205;49.986;18.950;2023-02-15T20:25:39;2.00;99.90
37324;DHT22;23205;49.986;18.950;2023-02-15T20:30:40;2.00;99.90
37324;DHT22;23205;49.986;18.950;2023-02-15T20:35:41;1.90;99.90
37324;DHT22;23205;49.986;18.950;2023-02-15T20:40:42;1.80;99.90
37324;DHT22;23205;49.986;18.950;2023-02-15T20:46:03;1.70;99.90
37324;DHT22;23205;49.986;18.950;2023-02-15T20:51:04;1.80;99.90
37324;DHT22;23205;49.986;18.950;2023-02-15T20:56:08;1.70;99.90
37324;DHT22;23205;49.986;18.950;2023-02-15T21:01:11;1.60;99.90
37324;DHT22;23205;49.986;18.950;2023-02-15T21:06:13;1.70;99.90
37324;DHT22;23205;49.986;18.950;2023-02-15T21:11:18;1.50;99.90
37324;DHT22;23205;49.986;18.950;2023-02-15T21:16:20;1.50;99.90
37324;DHT22;23205;49.986;18.950;2023-02-15T21:21:21;1.50;99.90
37324;DHT22;23205;49.986;18.950;2023-02-15T21:26:23;1.30;99.90
37324;DHT22;23205;49.986;18.950;2023-02-15T21:31:24;1.30;99.90
37324;DHT22;23205;49.986;18.950;2023-02-15T21:36:25;1.20;99.90
37324;DHT22;23205;49.986;18.950;2023-02-15T21:41:26;1.10;99.90
37324;DHT22;23205;49.986;18.950;2023-02-15T21:46:46;1.10;99.90
37324;DHT22;23205;49.986;18.950;2023-02-15T21:52:07;1.20;99.90
37324;DHT22;23205;49.986;18.950;2023-02-15T21:57:11;1.20;99.90
37324;DHT22;23205;49.986;18.950;2023-02-15T22:02:24;1.20;99.90
37324;DHT22;23205;49.986;18.950;2023-02-15T22:07:25;1.10;99.90
37324;DHT22;23205;49.986;18.950;2023-02-15T22:12:26;1.00;99.90
37324;DHT22;23205;49.986;18.950;2023-02-15T22:17:26;1.00;99.90
37324;DHT22;23205;49.986;18.950;2023-02-15T22:22:30;1.00;99.90
37324;DHT22;23205;49.986;18.950;2023-02-15T22:27:34;1.00;99.90
37324;DHT22;23205;49.986;18.950;2023-02-15T22:32:37;0.90;99.90
37324;DHT22;23205;49.986;18.950;2023-02-15T22:37:37;0.80;99.90
37324;DHT22;23205;49.986;18.950;2023-02-15T22:42:38;0.80;99.90
37324;DHT22;23205;49.986;18.950;2023-02-15T22:47:39;0.80;99.90
37324;DHT22;23205;49.986;18.950;2023-02-15T22:52:40;0.70;99.90
37324;DHT22;23205;49.986;18.950;2023-02-15T22:57:40;0.80;99.90
37324;DHT22;23205;49.986;18.950;2023-02-15T23:02:41;0.80;99.90
37324;DHT22;23205;49.986;18.950;2023-02-15T23:07:42;0.80;99.90
37324;DHT22;23205;49.986;18.950;2023-02-15T23:12:43;0.80;99.90
37324;DHT22;23205;49.986;18.950;2023-02-15T23:23:12;0.80;99.90
37324;DHT22;23205;49.986;18.950;2023-02-15T23:28:24;0.80;99.90
37324;DHT22;23205;49.986;18.950;2023-02-15T23:33:29;0.80;99.90
37324;DHT22;23205;49.986;18.950;2023-02-15T23:38:30;0.80;99.90
37324;DHT22;23205;49.986;18.950;2023-02-15T23:43:31;0.80;99.90
37324;DHT22;23205;49.986;18.950;2023-02-15T23:48:33;0.80;99.90
37324;DHT22;23205;49.986;18.950;2023-02-15T23:53:34;0.90;99.90
37324;DHT22;23205;49.986;18.950;2023-02-15T23:58:36;0.80;99.90
